createdAt,value
2023-04-19T00:02:21.766Z,9.02
2023-04-19T00:04:48.966Z,9.63
2023-04-19T00:07:17.134Z,10.02
2023-04-19T00:09:44.138Z,6.97
2023-04-19T00:14:37.604Z,8.45
2023-04-19T00:19:31.406Z,8.18
2023-04-19T00:21:58.201Z,7.15
2023-04-19T00:24:25.142Z,7.28
2023-04-19T00:26:51.924Z,7.65
2023-04-19T00:29:18.810Z,8.10
2023-04-19T00:31:45.686Z,7.25
2023-04-19T00:34:16.340Z,7.60
2023-04-19T00:36:43.688Z,7.40
2023-04-19T00:41:38.417Z,7.47
2023-04-19T00:44:05.309Z,8.02
2023-04-19T00:46:33.432Z,6.55
2023-04-19T00:49:00.591Z,12.55
2023-04-19T00:51:27.779Z,6.85
2023-04-19T00:53:54.803Z,7.72
2023-04-19T00:56:24.115Z,6.65
2023-04-19T00:58:54.274Z,6.18
2023-04-19T01:01:21.249Z,5.68
2023-04-19T01:03:49.796Z,7.50
2023-04-19T01:08:43.379Z,9.63
2023-04-19T01:11:10.214Z,8.07
2023-04-19T01:16:04.157Z,6.53
2023-04-19T01:18:37.408Z,5.78
2023-04-19T01:21:05.378Z,5.85
2023-04-19T01:23:32.145Z,6.32
2023-04-19T01:25:58.971Z,6.03
2023-04-19T01:28:25.899Z,5.53
2023-04-19T01:35:48.454Z,7.95
2023-04-19T01:38:16.516Z,5.35
2023-04-19T01:40:43.745Z,5.97
2023-04-19T01:43:13.776Z,7.05
2023-04-19T01:45:40.714Z,6.22
2023-04-19T01:50:34.639Z,5.60
2023-04-19T01:55:29.011Z,6.82
2023-04-19T01:57:56.092Z,7.75
2023-04-19T02:00:23.501Z,6.47
2023-04-19T02:05:17.165Z,6.32
2023-04-19T02:10:11.626Z,7.40
2023-04-19T02:12:38.394Z,7.32
2023-04-19T02:15:05.910Z,8.38
2023-04-19T02:17:35.974Z,7.93
2023-04-19T02:20:04.245Z,6.85
2023-04-19T02:22:32.470Z,7.53
2023-04-19T02:24:59.628Z,9.20
2023-04-19T02:27:29.681Z,8.95
2023-04-19T02:32:24.630Z,8.10
2023-04-19T02:37:19.030Z,8.38
2023-04-19T02:42:13.062Z,8.30
2023-04-19T02:44:39.880Z,9.13
2023-04-19T02:49:36.561Z,9.13
2023-04-19T02:52:03.993Z,10.48
2023-04-19T02:54:33.295Z,11.95
2023-04-19T02:57:00.931Z,9.25
2023-04-19T02:59:27.897Z,10.23
2023-04-19T03:01:56.805Z,10.15
2023-04-19T03:04:25.497Z,9.15
2023-04-19T03:06:52.753Z,9.68
2023-04-19T03:09:21.218Z,7.95
2023-04-19T03:11:47.962Z,11.38
2023-04-19T03:14:17.243Z,9.63
2023-04-19T03:16:44.227Z,10.07
2023-04-19T03:21:45.898Z,12.90
2023-04-19T03:24:13.194Z,12.20
2023-04-19T03:26:45.315Z,12.60
2023-04-19T03:29:14.336Z,12.45
2023-04-19T03:31:56.395Z,13.82
2023-04-19T03:34:23.636Z,13.15
2023-04-19T03:36:50.490Z,15.38
2023-04-19T03:39:20.337Z,14.13
2023-04-19T03:41:50.885Z,19.20
2023-04-19T03:44:23.580Z,15.77
2023-04-19T03:46:50.490Z,14.27
2023-04-19T03:49:22.308Z,16.20
2023-04-19T03:51:54.968Z,14.18
2023-04-19T03:56:48.756Z,14.27
2023-04-19T03:59:15.777Z,16.27
2023-04-19T04:01:43.529Z,16.85
2023-04-19T04:04:11.957Z,14.90
2023-04-19T04:06:39.848Z,15.38
2023-04-19T04:09:07.685Z,16.98
2023-04-19T04:11:34.873Z,17.23
2023-04-19T04:16:32.110Z,16.48
2023-04-19T04:18:59.717Z,15.10
2023-04-19T04:21:28.681Z,16.10
2023-04-19T04:24:01.911Z,18.92
2023-04-19T04:26:52.278Z,15.20
2023-04-19T04:29:23.370Z,17.73
2023-04-19T04:31:52.572Z,19.02
2023-04-19T04:34:24.550Z,16.92
2023-04-19T04:36:57.358Z,18.58
2023-04-19T04:39:24.942Z,16.40
2023-04-19T04:41:53.110Z,18.58
2023-04-19T04:44:20.673Z,17.92
2023-04-19T04:46:48.470Z,18.38
2023-04-19T04:49:21.947Z,16.58
2023-04-19T04:51:49.703Z,18.77
2023-04-19T04:54:17.842Z,17.17
2023-04-19T04:56:47.395Z,14.13
2023-04-19T04:59:16.598Z,20.00
2023-04-19T05:01:47.182Z,15.85
2023-04-19T05:04:15.476Z,18.88
2023-04-19T05:06:45.901Z,15.35
2023-04-19T05:09:19.528Z,17.60
2023-04-19T05:11:46.486Z,17.75
2023-04-19T05:14:13.458Z,18.98
2023-04-19T05:16:40.521Z,15.27
2023-04-19T05:19:07.546Z,18.65
2023-04-19T05:21:40.007Z,20.42
2023-04-19T05:24:09.987Z,15.45
2023-04-19T05:26:37.403Z,18.05
2023-04-19T05:29:05.788Z,18.08
2023-04-19T05:31:45.493Z,16.63
2023-04-19T05:34:21.238Z,18.15
2023-04-19T05:36:49.107Z,16.38
2023-04-19T05:39:17.033Z,15.82
2023-04-19T05:41:43.970Z,16.90
2023-04-19T05:46:37.741Z,14.63
2023-04-19T05:49:06.522Z,15.30
2023-04-19T05:52:08.781Z,14.57
2023-04-19T05:54:45.403Z,18.52
2023-04-19T05:57:12.293Z,14.88
2023-04-19T06:02:07.468Z,18.20
2023-04-19T06:04:34.524Z,15.48
2023-04-19T06:07:01.518Z,16.25
2023-04-19T06:09:28.880Z,21.42
2023-04-19T06:11:56.809Z,17.15
2023-04-19T06:14:24.335Z,16.05
2023-04-19T06:16:51.305Z,15.93
2023-04-19T06:21:44.914Z,13.85
2023-04-19T06:24:11.810Z,15.93
2023-04-19T06:29:05.318Z,16.67
2023-04-19T06:31:33.363Z,15.90
2023-04-19T06:34:00.747Z,16.33
2023-04-19T06:36:27.577Z,15.98
2023-04-19T06:38:54.364Z,14.95
2023-04-19T06:41:21.199Z,13.13
2023-04-19T06:43:48.357Z,15.15
2023-04-19T06:46:15.904Z,15.85
2023-04-19T06:48:42.852Z,14.95
2023-04-19T06:53:36.943Z,18.45
2023-04-19T06:56:04.848Z,15.95
2023-04-19T06:58:34.538Z,15.13
2023-04-19T07:01:04.135Z,13.55
2023-04-19T07:03:31.307Z,14.43
2023-04-19T07:05:58.427Z,13.40
2023-04-19T07:11:09.559Z,14.55
2023-04-19T07:16:05.655Z,11.20
2023-04-19T07:18:32.721Z,11.35
2023-04-19T07:23:26.129Z,10.90
2023-04-19T07:25:52.889Z,10.43
2023-04-19T07:28:19.719Z,12.48
2023-04-19T07:33:13.609Z,11.00
2023-04-19T07:38:07.397Z,14.15
2023-04-19T07:40:34.196Z,10.48
2023-04-19T07:43:00.905Z,9.32
2023-04-19T07:45:27.615Z,9.57
2023-04-19T07:47:54.379Z,8.63
2023-04-19T07:50:23.120Z,9.85
2023-04-19T07:52:50.124Z,9.40
2023-04-19T07:55:17.092Z,10.35
2023-04-19T07:57:48.060Z,8.77
2023-04-19T08:00:17.204Z,11.18
2023-04-19T08:02:48.076Z,8.07
2023-04-19T08:05:19.237Z,9.70
2023-04-19T08:07:46.488Z,7.75
2023-04-19T08:10:13.377Z,8.10
2023-04-19T08:17:56.631Z,7.75
2023-04-19T08:20:23.560Z,9.40
2023-04-19T08:25:18.096Z,6.38
2023-04-19T08:27:44.847Z,7.28
2023-04-19T08:30:12.121Z,7.60
2023-04-19T08:32:41.903Z,6.15
2023-04-19T08:35:09.326Z,6.80
2023-04-19T08:37:36.145Z,7.95
2023-04-19T08:42:36.873Z,7.45
2023-04-19T08:47:52.056Z,5.68
2023-04-19T08:50:33.421Z,6.57
2023-04-19T08:53:16.390Z,5.40
2023-04-19T08:56:08.696Z,6.18
2023-04-19T08:58:57.130Z,7.22
2023-04-19T09:01:33.758Z,5.97
2023-04-19T09:04:26.484Z,7.57
2023-04-19T09:06:54.276Z,7.45
2023-04-19T09:09:37.239Z,7.80
2023-04-19T09:12:18.362Z,5.43
2023-04-19T09:17:17.212Z,7.38
2023-04-19T09:19:49.447Z,7.28
2023-04-19T09:22:16.812Z,5.82
2023-04-19T09:27:16.739Z,7.03
2023-04-19T09:29:53.296Z,5.10
2023-04-19T09:32:20.232Z,6.72
2023-04-19T09:34:58.984Z,6.88
2023-04-19T09:37:51.531Z,6.32
2023-04-19T09:40:24.512Z,5.53
2023-04-19T09:45:30.137Z,4.80
2023-04-19T09:48:07.478Z,5.90
2023-04-19T09:50:46.829Z,7.20
2023-04-19T09:53:21.629Z,8.60
2023-04-19T09:56:00.656Z,6.68
2023-04-19T09:58:34.451Z,7.38
2023-04-19T10:01:15.076Z,5.60
2023-04-19T10:03:46.526Z,7.10
2023-04-19T10:08:50.706Z,4.97
2023-04-19T10:11:20.394Z,4.45
2023-04-19T10:13:48.865Z,5.68
2023-04-19T10:16:20.042Z,4.63
2023-04-19T10:18:49.870Z,7.15
2023-04-19T10:21:17.935Z,4.97
2023-04-19T10:23:44.704Z,3.97
2023-04-19T10:26:11.583Z,6.07
2023-04-19T10:28:38.383Z,5.57
2023-04-19T10:31:05.585Z,4.30
2023-04-19T10:33:37.492Z,4.68
2023-04-19T10:36:08.280Z,5.88
2023-04-19T10:38:41.462Z,6.78
2023-04-19T10:41:14.449Z,5.43
2023-04-19T10:43:55.489Z,6.25
2023-04-19T10:46:22.238Z,5.97
2023-04-19T10:48:55.103Z,4.72
2023-04-19T10:51:27.789Z,6.57
2023-04-19T10:54:08.711Z,5.82
2023-04-19T10:56:35.696Z,5.38
2023-04-19T10:59:02.859Z,6.93
2023-04-19T11:01:41.164Z,6.35
2023-04-19T11:04:18.275Z,7.30
2023-04-19T11:09:34.827Z,8.80
2023-04-19T11:12:10.060Z,7.95
2023-04-19T11:14:40.791Z,7.93
2023-04-19T11:17:28.111Z,5.18
2023-04-19T11:22:32.494Z,5.10
2023-04-19T11:25:10.554Z,6.20
2023-04-19T11:27:38.487Z,4.70
2023-04-19T11:30:21.565Z,5.07
2023-04-19T11:32:52.180Z,6.05
2023-04-19T11:35:30.401Z,6.53
2023-04-19T11:37:59.509Z,4.38
2023-04-19T11:40:26.848Z,4.75
2023-04-19T11:43:02.588Z,8.98
2023-04-19T11:45:34.508Z,3.85
2023-04-19T11:48:05.404Z,5.60
2023-04-19T11:50:42.122Z,3.63
2023-04-19T11:53:13.511Z,5.88
2023-04-19T11:55:43.297Z,3.63
2023-04-19T11:58:22.293Z,4.38
2023-04-19T12:00:49.133Z,6.10
2023-04-19T12:03:16.852Z,5.13
2023-04-19T12:05:53.842Z,3.47
2023-04-19T12:08:32.024Z,2.88
2023-04-19T12:10:59.653Z,2.72
2023-04-19T12:13:26.546Z,3.20
2023-04-19T12:15:53.475Z,2.72
2023-04-19T12:18:20.441Z,3.05
2023-04-19T12:20:49.586Z,3.67
2023-04-19T12:23:17.634Z,6.05
2023-04-19T12:25:46.603Z,2.13
2023-04-19T12:28:14.626Z,2.45
2023-04-19T12:30:42.001Z,4.18
2023-04-19T12:33:09.414Z,1.67
2023-04-19T12:35:37.293Z,3.45
2023-04-19T12:38:04.083Z,2.92
2023-04-19T12:40:31.331Z,4.35
2023-04-19T12:42:58.075Z,1.75
2023-04-19T12:45:26.251Z,2.28
2023-04-19T12:47:53.162Z,3.80
2023-04-19T12:50:19.951Z,2.55
2023-04-19T12:52:46.925Z,2.75
2023-04-19T12:55:13.864Z,3.05
2023-04-19T12:57:40.607Z,2.15
2023-04-19T13:00:09.971Z,4.63
2023-04-19T13:02:36.926Z,2.92
2023-04-19T13:05:05.504Z,3.58
2023-04-19T13:07:32.356Z,2.70
2023-04-19T13:09:59.357Z,2.95
2023-04-19T13:12:26.198Z,3.22
2023-04-19T13:14:52.998Z,2.20
2023-04-19T13:17:20.652Z,2.17
2023-04-19T13:19:47.546Z,2.83
2023-04-19T13:22:14.733Z,4.07
2023-04-19T13:24:41.462Z,3.72
2023-04-19T13:27:09.080Z,3.53
2023-04-19T13:29:36.456Z,2.65
2023-04-19T13:32:07.146Z,2.08
2023-04-19T13:34:34.154Z,2.22
2023-04-19T13:37:00.966Z,4.28
2023-04-19T13:39:27.726Z,3.08
2023-04-19T13:41:54.471Z,2.78
2023-04-19T13:44:21.278Z,4.90
2023-04-19T13:46:48.160Z,1.80
2023-04-19T13:49:14.941Z,4.30
2023-04-19T13:51:49.583Z,1.73
2023-04-19T13:54:19.497Z,4.73
2023-04-19T13:56:47.465Z,3.45
2023-04-19T13:59:15.776Z,2.25
2023-04-19T14:01:42.688Z,2.47
2023-04-19T14:04:09.578Z,2.65
2023-04-19T14:06:36.647Z,2.25
2023-04-19T14:09:03.439Z,3.03
2023-04-19T14:11:30.620Z,1.67
2023-04-19T14:13:57.790Z,4.20
2023-04-19T14:16:25.224Z,7.80
2023-04-19T14:18:52.552Z,3.03
2023-04-19T14:21:19.528Z,1.55
2023-04-19T14:23:46.536Z,2.53
2023-04-19T14:26:13.411Z,13.93
2023-04-19T14:28:40.399Z,3.80
2023-04-19T14:31:07.178Z,2.72
2023-04-19T14:33:33.984Z,3.38
2023-04-19T14:36:01.380Z,5.50
2023-04-19T14:38:28.334Z,8.82
2023-04-19T14:40:55.286Z,3.38
2023-04-19T14:43:22.019Z,3.83
2023-04-19T14:45:52.248Z,3.70
2023-04-19T14:48:21.948Z,2.88
2023-04-19T14:50:49.165Z,2.65
2023-04-19T14:53:16.131Z,3.10
2023-04-19T14:55:42.848Z,3.90
2023-04-19T14:58:09.622Z,5.28
2023-04-19T15:00:36.318Z,3.05
2023-04-19T15:03:03.330Z,2.75
2023-04-19T15:05:30.500Z,3.75
2023-04-19T15:07:57.519Z,4.05
2023-04-19T15:10:24.450Z,3.20
2023-04-19T15:12:51.300Z,3.47
2023-04-19T15:15:18.264Z,4.97
2023-04-19T15:17:45.086Z,2.75
2023-04-19T15:20:12.331Z,6.90
2023-04-19T15:22:39.251Z,4.97
2023-04-19T15:25:06.316Z,3.58
2023-04-19T15:27:33.049Z,5.80
2023-04-19T15:29:59.866Z,4.78
2023-04-19T15:32:27.499Z,7.53
2023-04-19T15:34:54.341Z,4.22
2023-04-19T15:37:21.158Z,2.47
2023-04-19T15:39:50.169Z,2.42
2023-04-19T15:42:17.054Z,3.47
2023-04-19T15:44:44.326Z,3.83
2023-04-19T15:47:11.122Z,3.58
2023-04-19T15:49:37.951Z,4.82
2023-04-19T15:52:04.931Z,5.50
2023-04-19T15:54:31.640Z,3.47
2023-04-19T15:56:58.367Z,5.07
2023-04-19T15:59:25.739Z,4.80
2023-04-19T16:01:52.577Z,2.55
2023-04-19T16:04:19.485Z,2.88
2023-04-19T16:06:46.280Z,4.07
2023-04-19T16:09:13.010Z,3.53
2023-04-19T16:11:39.742Z,2.85
2023-04-19T16:14:06.430Z,4.47
2023-04-19T16:16:34.590Z,2.78
2023-04-19T16:19:02.689Z,2.83
2023-04-19T16:21:30.850Z,3.67
2023-04-19T16:23:57.736Z,9.10
2023-04-19T16:26:24.573Z,4.75
2023-04-19T16:28:51.477Z,5.10
2023-04-19T16:31:18.342Z,3.85
2023-04-19T16:33:45.184Z,5.80
2023-04-19T16:36:12.013Z,5.75
2023-04-19T16:41:06.278Z,7.60
2023-04-19T16:43:33.275Z,4.13
2023-04-19T16:48:27.073Z,6.90
2023-04-19T16:50:53.831Z,4.00
2023-04-19T16:53:21.179Z,6.57
2023-04-19T16:55:48.117Z,4.45
2023-04-19T16:58:15.042Z,5.93
2023-04-19T17:00:41.939Z,2.95
2023-04-19T17:05:38.861Z,4.18
2023-04-19T17:10:32.495Z,4.32
2023-04-19T17:12:59.295Z,4.15
2023-04-19T17:15:26.193Z,4.45
2023-04-19T17:20:19.818Z,4.35
2023-04-19T17:25:13.342Z,4.18
2023-04-19T17:30:08.080Z,9.60
2023-04-19T17:32:35.888Z,8.85
2023-04-19T17:35:04.204Z,4.45
2023-04-19T17:37:31.224Z,3.70
2023-04-19T17:39:58.088Z,4.82
2023-04-19T17:42:24.866Z,6.63
2023-04-19T17:47:21.587Z,6.32
2023-04-19T17:49:48.384Z,7.25
2023-04-19T17:52:15.244Z,10.52
2023-04-19T17:54:41.981Z,7.25
2023-04-19T17:57:09.008Z,4.90
2023-04-19T17:59:35.783Z,3.83
2023-04-19T18:02:02.635Z,4.90
2023-04-19T18:06:57.800Z,3.65
2023-04-19T18:09:24.577Z,5.05
2023-04-19T18:11:51.396Z,4.65
2023-04-19T18:14:18.182Z,5.50
2023-04-19T18:16:45.022Z,3.83
2023-04-19T18:19:11.760Z,6.57
2023-04-19T18:21:38.510Z,4.00
2023-04-19T18:24:05.849Z,3.53
2023-04-19T18:26:41.174Z,5.40
2023-04-19T18:29:08.183Z,3.70
2023-04-19T18:31:34.970Z,2.72
2023-04-19T18:36:29.178Z,4.03
2023-04-19T18:41:22.699Z,4.15
2023-04-19T18:44:18.457Z,6.03
2023-04-19T18:46:38.171Z,3.25
2023-04-19T18:49:04.985Z,4.68
2023-04-19T18:51:32.716Z,3.58
2023-04-19T18:53:59.479Z,5.38
2023-04-19T18:57:03.822Z,2.75
2023-04-19T18:59:13.307Z,3.33
2023-04-19T19:01:40.498Z,4.13
2023-04-19T19:04:31.744Z,6.25
2023-04-19T19:06:54.668Z,5.50
2023-04-19T19:09:22.978Z,3.85
2023-04-19T19:11:56.664Z,3.83
2023-04-19T19:14:23.959Z,3.67
2023-04-19T19:16:52.806Z,5.13
2023-04-19T19:19:22.769Z,4.63
2023-04-19T19:21:49.959Z,3.88
2023-04-19T19:24:16.743Z,4.60
2023-04-19T19:26:43.503Z,4.00
2023-04-19T19:29:11.837Z,6.88
2023-04-19T19:31:38.558Z,5.95
2023-04-19T19:34:23.451Z,5.40
2023-04-19T19:36:52.388Z,4.90
2023-04-19T19:39:19.202Z,5.88
2023-04-19T19:44:16.004Z,6.40
2023-04-19T19:46:43.277Z,3.85
2023-04-19T19:49:13.015Z,5.43
2023-04-19T19:51:57.019Z,6.53
2023-04-19T19:54:24.825Z,4.22
2023-04-19T19:59:29.167Z,5.10
2023-04-19T20:01:56.698Z,4.10
2023-04-19T20:04:23.655Z,5.97
2023-04-19T20:09:21.296Z,4.65
2023-04-19T20:11:48.048Z,5.32
2023-04-19T20:14:14.729Z,4.28
2023-04-19T20:16:41.667Z,6.35
2023-04-19T20:21:37.953Z,5.38
2023-04-19T20:24:05.879Z,6.20
2023-04-19T20:26:33.171Z,5.15
2023-04-19T20:29:01.035Z,5.72
2023-04-19T20:31:27.878Z,4.85
2023-04-19T20:36:24.591Z,7.03
2023-04-19T20:38:51.529Z,4.57
2023-04-19T20:41:18.954Z,4.28
2023-04-19T20:43:45.679Z,2.85
2023-04-19T20:46:12.424Z,4.20
2023-04-19T20:48:39.374Z,4.53
2023-04-19T20:53:33.457Z,5.68
2023-04-19T20:56:01.226Z,3.55
2023-04-19T20:58:28.062Z,5.00
2023-04-19T21:00:54.784Z,5.75
2023-04-19T21:03:21.695Z,5.85
2023-04-19T21:08:16.065Z,5.63
2023-04-19T21:10:42.844Z,4.03
2023-04-19T21:13:09.583Z,5.20
2023-04-19T21:15:39.762Z,3.58
2023-04-19T21:18:06.882Z,4.88
2023-04-19T21:20:34.056Z,7.53
2023-04-19T21:23:01.945Z,4.82
2023-04-19T21:25:28.761Z,5.75
2023-04-19T21:27:55.625Z,5.72
2023-04-19T21:30:23.620Z,6.35
2023-04-19T21:32:50.812Z,3.90
2023-04-19T21:35:17.945Z,7.88
2023-04-19T21:40:11.752Z,3.95
2023-04-19T21:45:06.926Z,6.78
2023-04-19T21:47:33.839Z,4.93
2023-04-19T21:50:00.625Z,6.05
2023-04-19T21:52:27.458Z,5.32
2023-04-19T21:54:55.213Z,6.30
2023-04-19T21:57:24.730Z,5.35
2023-04-19T21:59:51.551Z,11.27
2023-04-19T22:02:21.355Z,6.35
2023-04-19T22:04:49.174Z,7.82
2023-04-19T22:07:18.707Z,8.98
2023-04-19T22:09:46.288Z,8.82
2023-04-19T22:12:13.684Z,7.88
2023-04-19T22:14:40.766Z,8.73
2023-04-19T22:19:35.784Z,6.68
2023-04-19T22:22:02.540Z,4.57
2023-04-19T22:24:29.415Z,5.00
2023-04-19T22:26:57.477Z,8.77
2023-04-19T22:29:24.437Z,7.82
2023-04-19T22:31:51.513Z,6.72
2023-04-19T22:34:18.304Z,5.38
2023-04-19T22:36:45.309Z,4.82
2023-04-19T22:41:38.991Z,6.22
2023-04-19T22:44:05.802Z,7.47
2023-04-19T22:46:33.011Z,6.65
2023-04-19T22:49:00.008Z,6.47
2023-04-19T22:51:27.807Z,5.32
2023-04-19T22:53:54.804Z,6.80
2023-04-19T22:56:21.777Z,10.40
2023-04-19T22:58:48.583Z,8.48
2023-04-19T23:01:15.408Z,6.57
2023-04-19T23:03:42.164Z,6.70
2023-04-19T23:10:22.332Z,5.75
2023-04-19T23:15:16.351Z,6.70
2023-04-19T23:17:43.305Z,7.72
2023-04-19T23:21:12.998Z,5.35
2023-04-19T23:23:40.060Z,7.33
2023-04-19T23:28:33.571Z,6.53
2023-04-19T23:31:00.607Z,7.15
2023-04-19T23:35:54.174Z,5.47
2023-04-19T23:38:21.198Z,6.32
2023-04-19T23:43:14.667Z,6.57
2023-04-19T23:45:41.461Z,4.38
2023-04-19T23:48:08.312Z,6.18
2023-04-19T23:50:35.599Z,5.88
2023-04-19T23:53:04.398Z,4.40
2023-04-19T23:55:31.376Z,7.22
2023-04-19T23:57:58.371Z,8.15
